Terminal Aerodrome Forecast
Issued by NWS Bismarck, ND

Home | Current Version | Previous Version | Graphics & Text | Print | Product List | Glossary On
Versions: 1 2 3 4 5 6 7 8 9 10 11 12 13 14 15 16 17 18 19 20 21 22
000
FTUS43 KBIS 170300 AAA
TAFBIS
TAF AMD
KBIS 170301Z 1703/1724 35003KT P6SM SKC
     FM170500 VRB03KT P6SM SKC
     FM171300 28005KT P6SM FEW300
     FM171900 34007KT P6SM FEW300=

USA.gov is the U.S. government's official web portal to all federal, state and local government web resources and services.